Time;durP1;ratioP1;P1;durP2;ratioP2;P2;SDS_P1;SDS_P2;PMS_P1;PMS_P2;Temp;Humidity;BMP_temperature;BMP_pressure;BME280_temperature;BME280_humidity;BME280_pressure;Samples;Min_cycle;Max_cycle;Signal;HPM_P1;HPM_P2
2022/04/17 00:01:55;;;;;;;35.28;23.45;;;;;;;13.39;100.00;100156.63;4844240;29;20038;-86
2022/04/17 00:04:20;;;;;;;38.67;23.63;;;;;;;13.49;100.00;100166.91;4829355;29;20045;-86
2022/04/17 00:06:46;;;;;;;34.83;22.98;;;;;;;13.39;100.00;100147.91;4854281;29;20029;-86
2022/04/17 00:09:12;;;;;;;34.08;23.02;;;;;;;13.32;100.00;100152.25;4844444;29;20045;-86
2022/04/17 00:11:38;;;;;;;33.70;22.10;;;;;;;13.41;100.00;100165.16;4839908;29;20041;-87
2022/04/17 00:14:04;;;;;;;33.15;22.25;;;;;;;13.33;100.00;100157.38;4834285;29;20041;-88
2022/04/17 00:16:30;;;;;;;35.17;22.83;;;;;;;13.30;100.00;100160.38;4833730;29;20439;-86
2022/04/17 00:18:56;;;;;;;36.15;21.60;;;;;;;13.39;100.00;100161.09;4846381;29;20037;-86
2022/04/17 00:21:22;;;;;;;37.20;23.27;;;;;;;13.38;100.00;100159.44;4849616;29;20041;-87
2022/04/17 00:23:49;;;;;;;39.88;22.90;;;;;;;13.29;100.00;100145.56;4853578;29;20386;-84
2022/04/17 00:26:14;;;;;;;37.45;23.50;;;;;;;13.23;100.00;100147.09;4854242;29;20044;-86
2022/04/17 00:28:40;;;;;;;36.20;22.42;;;;;;;13.38;100.00;100152.34;4857792;29;20034;-86
2022/04/17 00:31:06;;;;;;;34.20;22.23;;;;;;;13.27;100.00;100145.72;4850909;29;20101;-86
2022/04/17 00:33:31;;;;;;;35.78;23.58;;;;;;;13.35;100.00;100154.53;4832462;29;20040;-86
2022/04/17 00:35:57;;;;;;;43.03;24.23;;;;;;;13.30;100.00;100144.56;4851067;29;20033;-88
2022/04/17 00:38:23;;;;;;;35.88;23.35;;;;;;;13.29;100.00;100151.63;4844583;29;20133;-86
2022/04/17 00:40:49;;;;;;;35.92;22.83;;;;;;;13.28;100.00;100144.72;4830084;29;20516;-87
2022/04/17 00:43:26;;;;;;;37.30;22.63;;;;;;;13.27;100.00;100148.38;4850337;29;20101;-87
2022/04/17 00:45:53;;;;;;;33.50;20.85;;;;;;;13.21;100.00;100137.72;4857950;29;20065;-88
2022/04/17 00:48:20;;;;;;;34.03;22.48;;;;;;;13.17;100.00;100147.03;4849867;29;20097;-86
2022/04/17 00:50:54;;;;;;;32.40;21.48;;;;;;;13.11;100.00;100146.75;4850452;29;20108;-85
2022/04/17 00:53:23;;;;;;;35.10;23.33;;;;;;;13.00;100.00;100147.22;4857586;29;20033;-86
2022/04/17 00:55:50;;;;;;;37.20;23.23;;;;;;;12.84;100.00;100138.50;4854795;29;20097;-86
2022/04/17 00:58:17;;;;;;;35.10;23.25;;;;;;;12.89;100.00;100130.06;4857430;29;20041;-87
2022/04/17 01:00:43;;;;;;;34.78;22.48;;;;;;;12.94;100.00;100127.69;4849094;29;20060;-88
2022/04/17 01:03:10;;;;;;;38.78;24.17;;;;;;;12.96;100.00;100136.22;4848126;29;20117;-87
2022/04/17 01:05:39;;;;;;;37.38;22.67;;;;;;;12.92;100.00;100124.41;4830676;29;20086;-86
2022/04/17 01:08:07;;;;;;;41.17;23.98;;;;;;;12.88;100.00;100127.63;4845816;29;20120;-87
2022/04/17 01:10:32;;;;;;;38.80;24.40;;;;;;;12.85;100.00;100120.88;4834157;29;20125;-89
2022/04/17 01:13:01;;;;;;;39.40;23.95;;;;;;;12.78;100.00;100112.09;4851360;29;20037;-86
2022/04/17 01:15:28;;;;;;;39.17;24.15;;;;;;;12.65;100.00;100103.00;4835339;29;20029;-86
2022/04/17 01:17:54;;;;;;;36.03;23.33;;;;;;;12.60;100.00;100089.56;4857041;29;20038;-87
2022/04/17 01:20:22;;;;;;;40.33;24.55;;;;;;;12.59;100.00;100101.09;4835213;29;20049;-86
2022/04/17 01:26:55;;;;;;;40.05;24.73;;;;;;;12.49;100.00;100077.66;4848286;29;20674;-87
2022/04/17 01:28:23;;;;;;;40.70;23.60;;;;;;;12.50;100.00;100094.25;4861481;29;20026;-87
2022/04/17 01:30:53;;;;;;;38.60;24.80;;;;;;;12.55;100.00;100099.78;4833205;29;20041;-86
2022/04/17 01:33:19;;;;;;;37.03;23.98;;;;;;;12.53;100.00;100096.53;4833915;29;20110;-87
2022/04/17 01:35:45;;;;;;;37.45;25.17;;;;;;;12.47;100.00;100089.34;4847308;29;20125;-86
2022/04/17 01:38:10;;;;;;;38.35;24.30;;;;;;;12.51;100.00;100086.19;4826708;29;20042;-86
2022/04/17 01:40:36;;;;;;;40.65;24.52;;;;;;;12.56;100.00;100097.00;4857280;29;20422;-85
2022/04/17 01:43:08;;;;;;;36.35;23.48;;;;;;;12.56;100.00;100102.25;4833591;29;20058;-86
2022/04/17 01:45:34;;;;;;;40.15;25.33;;;;;;;12.48;100.00;100094.47;4848012;29;20442;-88
2022/04/17 01:48:00;;;;;;;39.35;24.75;;;;;;;12.41;100.00;100085.63;4861118;29;20037;-88
2022/04/17 01:50:27;;;;;;;37.92;23.10;;;;;;;12.44;100.00;100085.25;4834260;29;20113;-86
2022/04/17 01:52:59;;;;;;;39.45;25.63;;;;;;;12.30;100.00;100065.81;4847973;29;20382;-85
2022/04/17 01:55:25;;;;;;;40.25;25.95;;;;;;;12.34;100.00;100082.88;4831634;29;20049;-86
2022/04/17 01:57:51;;;;;;;43.03;25.92;;;;;;;12.34;100.00;100084.72;4844032;29;20132;-85
2022/04/17 02:00:17;;;;;;;41.13;25.90;;;;;;;12.28;100.00;100075.72;4847625;29;20140;-87
2022/04/17 02:02:44;;;;;;;40.42;24.38;;;;;;;12.17;100.00;100063.00;4842427;29;20063;-87
2022/04/17 02:05:09;;;;;;;44.38;26.75;;;;;;;12.23;100.00;100073.63;4844994;29;20037;-86
2022/04/17 02:07:37;;;;;;;40.60;25.27;;;;;;;12.09;100.00;100054.19;4846543;29;20053;-86
2022/04/17 02:10:04;;;;;;;42.70;26.42;;;;;;;12.19;100.00;100075.00;4858966;29;20029;-86
2022/04/17 02:12:30;;;;;;;43.42;26.05;;;;;;;12.03;100.00;100062.81;4845553;29;20544;-86
2022/04/17 02:14:56;;;;;;;40.00;24.17;;;;;;;12.03;100.00;100062.81;4845726;29;20080;-86
2022/04/17 02:17:21;;;;;;;42.63;25.08;;;;;;;12.14;100.00;100074.72;4847614;29;20025;-87
2022/04/17 02:19:47;;;;;;;40.22;24.85;;;;;;;12.05;100.00;100046.81;4853057;29;20560;-86
2022/04/17 02:22:13;;;;;;;42.00;26.05;;;;;;;12.13;100.00;100058.09;4860332;29;20033;-86
2022/04/17 02:24:38;;;;;;;42.60;26.48;;;;;;;12.14;100.00;100057.09;4867059;29;20036;-86
2022/04/17 02:27:04;;;;;;;49.92;26.65;;;;;;;11.98;100.00;100042.25;4867864;29;20033;-87
2022/04/17 02:29:33;;;;;;;45.80;25.10;;;;;;;12.09;100.00;100041.03;4865148;29;20033;-87
2022/04/17 02:31:58;;;;;;;41.72;25.88;;;;;;;12.13;100.00;100052.03;4867448;29;20449;-89
2022/04/17 02:34:24;;;;;;;42.22;25.45;;;;;;;12.25;100.00;100041.88;4849412;29;20052;-86
2022/04/17 02:36:50;;;;;;;41.67;25.00;;;;;;;12.34;100.00;100058.41;4863368;29;20033;-87
2022/04/17 02:39:16;;;;;;;40.22;25.05;;;;;;;12.30;100.00;100041.34;4851842;29;20462;-86
2022/04/17 02:41:41;;;;;;;40.88;25.48;;;;;;;12.42;100.00;100043.34;4851270;29;20067;-86
2022/04/17 02:44:07;;;;;;;38.17;24.67;;;;;;;12.57;100.00;100045.13;4884138;29;20036;-86
2022/04/17 02:49:17;;;;;;;38.35;24.55;;;;;;;12.79;100.00;100050.47;4867376;29;20119;-87
2022/04/17 02:51:43;;;;;;;44.17;25.40;;;;;;;12.81;100.00;100032.66;4866721;29;20124;-86
2022/04/17 02:54:08;;;;;;;39.00;24.80;;;;;;;12.82;100.00;100040.38;4866947;29;20037;-87
2022/04/17 02:56:34;;;;;;;40.95;24.88;;;;;;;12.77;100.00;100031.38;4868752;29;20396;-88
2022/04/17 02:59:00;;;;;;;40.53;24.48;;;;;;;12.52;100.00;100011.44;4863687;29;20037;-86
2022/04/17 03:06:54;;;;;;;37.78;24.77;;;;;;;12.10;100.00;100010.28;4867536;29;20040;-89
2022/04/17 03:09:20;;;;;;;46.75;28.08;;;;;;;12.02;100.00;100008.53;4866700;29;20036;-87
2022/04/17 03:11:45;;;;;;;42.33;25.60;;;;;;;12.04;100.00;100022.34;4867304;29;20126;-87
2022/04/17 03:14:11;;;;;;;38.38;24.52;;;;;;;11.94;100.00;99998.06;4868097;29;20025;-87
2022/04/17 03:16:37;;;;;;;43.97;25.58;;;;;;;11.79;100.00;100004.13;4868029;29;20041;-87
2022/04/17 03:19:02;;;;;;;45.67;25.25;;;;;;;11.80;100.00;100010.19;4883663;29;20037;-88
2022/04/17 03:21:29;;;;;;;43.10;25.50;;;;;;;11.69;100.00;100008.81;4884725;29;20025;-89
2022/04/17 03:23:54;;;;;;;43.75;26.65;;;;;;;11.66;100.00;100011.81;4851527;29;20056;-86
2022/04/17 03:26:20;;;;;;;36.88;23.15;;;;;;;11.69;100.00;100003.56;4882017;29;20037;-86
2022/04/17 03:28:46;;;;;;;38.95;23.23;;;;;;;11.52;100.00;99985.28;4882821;29;20029;-85
2022/04/17 03:31:11;;;;;;;39.35;24.83;;;;;;;11.53;100.00;99989.53;4881570;29;20029;-86
2022/04/17 03:33:37;;;;;;;39.83;25.45;;;;;;;11.45;100.00;99986.16;4847523;29;20061;-87
2022/04/17 03:36:04;;;;;;;40.85;23.80;;;;;;;11.40;100.00;99981.44;4865040;29;20036;-87
2022/04/17 03:38:30;;;;;;;43.72;25.55;;;;;;;11.44;100.00;99990.63;4865294;29;20036;-86
2022/04/17 03:40:56;;;;;;;44.42;25.08;;;;;;;11.33;100.00;99985.75;4850321;29;20466;-85
2022/04/17 03:43:23;;;;;;;37.90;24.73;;;;;;;11.22;100.00;99968.59;4864521;29;20037;-87
2022/04/17 03:45:49;;;;;;;38.78;24.30;;;;;;;11.34;100.00;99982.13;4864805;29;20037;-85
2022/04/17 03:48:19;;;;;;;42.33;25.67;;;;;;;11.31;100.00;99974.59;4848887;29;20033;-86
2022/04/17 03:50:45;;;;;;;44.00;25.45;;;;;;;11.24;100.00;99970.06;4864015;29;20044;-86
2022/04/17 03:53:12;;;;;;;41.05;25.05;;;;;;;11.32;100.00;99978.88;4864129;29;20041;-85
2022/04/17 03:55:38;;;;;;;41.92;25.92;;;;;;;11.21;100.00;99959.06;4849039;29;20029;-85
2022/04/17 03:58:04;;;;;;;43.50;26.95;;;;;;;11.05;100.00;99939.00;4878459;29;20044;-85
2022/04/17 04:00:31;;;;;;;40.67;25.15;;;;;;;11.03;100.00;99951.50;4846875;29;20404;-87
2022/04/17 04:02:59;;;;;;;48.10;26.52;;;;;;;11.14;100.00;99959.78;4881617;29;20033;-88
2022/04/17 04:05:25;;;;;;;40.90;24.58;;;;;;;11.19;100.00;99951.34;4864041;29;20041;-85
2022/04/17 04:07:51;;;;;;;36.80;24.58;;;;;;;11.21;100.00;99957.28;4865814;29;20045;-87
2022/04/17 04:10:16;;;;;;;42.90;25.55;;;;;;;11.12;100.00;99946.00;4881753;29;20032;-84
2022/04/17 04:12:42;;;;;;;41.53;25.70;;;;;;;11.18;100.00;99954.97;4881877;29;20060;-87
2022/04/17 04:15:08;;;;;;;48.00;27.02;;;;;;;11.22;100.00;99945.78;4866308;29;20025;-87
2022/04/17 04:17:34;;;;;;;43.17;26.23;;;;;;;11.21;100.00;99940.69;4850085;29;20032;-87
2022/04/17 04:20:03;;;;;;;42.08;25.73;;;;;;;11.11;100.00;99922.53;4865547;29;20560;-86
2022/04/17 04:22:29;;;;;;;41.45;25.75;;;;;;;11.25;100.00;99950.69;4865546;29;20490;-86
2022/04/17 04:24:54;;;;;;;45.78;26.55;;;;;;;11.21;100.00;99946.78;4864616;29;20094;-86
2022/04/17 04:30:04;;;;;;;47.00;27.35;;;;;;;11.10;100.00;99931.41;4874314;29;20042;-87
2022/04/17 04:32:30;;;;;;;43.58;26.13;;;;;;;11.08;100.00;99920.25;4850410;29;20041;-88
2022/04/17 04:35:00;;;;;;;42.75;26.48;;;;;;;11.14;100.00;99940.56;4866439;29;20044;-87
2022/04/17 04:37:25;;;;;;;43.35;25.42;;;;;;;11.13;100.00;99936.31;4865625;29;20089;-88
2022/04/17 04:39:51;;;;;;;47.40;26.98;;;;;;;11.02;100.00;99936.72;4850661;29;20037;-87
2022/04/17 04:42:21;;;;;;;54.42;29.52;;;;;;;10.98;100.00;99923.91;4850732;29;20060;-88
2022/04/17 04:44:47;;;;;;;48.85;28.42;;;;;;;10.84;100.00;99919.44;4851362;29;20044;-88
2022/04/17 04:47:16;;;;;;;45.50;28.33;;;;;;;10.83;100.00;99920.44;4850739;29;20376;-85
2022/04/17 04:49:43;;;;;;;43.83;26.83;;;;;;;10.89;100.00;99932.88;4881625;29;20037;-87
2022/04/17 04:52:08;;;;;;;47.25;29.75;;;;;;;10.73;100.00;99915.41;4880737;29;20465;-87
2022/04/17 04:54:34;;;;;;;49.45;28.90;;;;;;;10.90;100.00;99929.25;4845059;29;20042;-86
2022/04/17 04:57:00;;;;;;;51.90;29.08;;;;;;;10.68;100.00;99902.78;4865319;29;20476;-87
2022/04/17 04:59:26;;;;;;;50.00;30.00;;;;;;;10.81;100.00;99917.16;4864904;29;20036;-84
2022/04/17 05:01:52;;;;;;;54.38;31.05;;;;;;;10.83;100.00;99920.44;4878384;29;20044;-85
2022/04/17 05:04:20;;;;;;;52.03;30.48;;;;;;;10.95;100.00;99923.47;4864026;29;20069;-85
2022/04/17 05:06:46;;;;;;;51.90;29.75;;;;;;;10.83;100.00;99896.81;4861252;29;20036;-85
2022/04/17 05:09:12;;;;;;;46.80;27.77;;;;;;;10.91;100.00;99914.31;4863304;29;20039;-85
2022/04/17 05:11:39;;;;;;;52.88;30.83;;;;;;;10.92;100.00;99921.19;4864396;29;20036;-87
2022/04/17 05:14:06;;;;;;;49.53;29.15;;;;;;;10.95;100.00;99919.03;4865445;29;20064;-86
2022/04/17 05:16:32;;;;;;;56.55;30.63;;;;;;;10.77;100.00;99897.47;4885316;29;20033;-88
2022/04/17 05:19:19;;;;;;;47.78;29.00;;;;;;;10.92;100.00;99906.25;4885027;29;20112;-88
2022/04/17 05:21:46;;;;;;;47.50;29.33;;;;;;;10.83;100.00;99902.06;4869197;29;20040;-88
2022/04/17 05:24:17;;;;;;;55.50;29.83;;;;;;;10.67;100.00;99869.66;4849602;29;21154;-86
2022/04/17 05:26:43;;;;;;;49.60;29.95;;;;;;;11.00;100.00;99916.72;4826165;29;20045;-87
2022/04/17 05:29:09;;;;;;;50.53;28.35;;;;;;;11.05;100.00;99917.97;4845234;29;20061;-86
2022/04/17 05:31:34;;;;;;;49.70;30.17;;;;;;;11.08;100.00;99920.25;4843315;29;20109;-83
2022/04/17 05:34:01;;;;;;;53.80;32.22;;;;;;;10.91;100.00;99880.97;4842838;29;20090;-80
2022/04/17 05:36:27;;;;;;;49.20;28.48;;;;;;;11.21;100.00;99917.88;4851081;29;20511;-81
2022/04/17 05:38:56;;;;;;;52.92;30.48;;;;;;;11.15;100.00;99897.53;4851501;29;20033;-82
2022/04/17 05:41:29;;;;;;;53.58;30.25;;;;;;;11.19;100.00;99904.06;4841653;29;20034;-81
2022/04/17 05:43:59;;;;;;;52.03;30.38;;;;;;;11.34;100.00;99908.53;4846964;29;20042;-82
2022/04/17 05:46:27;;;;;;;57.78;32.42;;;;;;;11.09;100.00;99851.75;4849588;29;20049;-84
2022/04/17 05:48:53;;;;;;;54.60;32.45;;;;;;;11.55;100.00;99907.88;4844076;29;20041;-83
2022/04/17 05:51:19;;;;;;;60.72;37.95;;;;;;;11.73;100.00;99910.13;4849505;29;20030;-84
2022/04/17 05:53:44;;;;;;;60.42;38.65;;;;;;;11.71;100.00;99893.72;4838273;29;20054;-83
2022/04/17 05:56:10;;;;;;;57.15;34.28;;;;;;;11.78;100.00;99902.50;4848299;29;20084;-83
2022/04/17 05:58:36;;;;;;;59.85;34.38;;;;;;;11.99;100.00;99908.91;4827678;29;20110;-82
2022/04/17 06:01:02;;;;;;;53.88;30.83;;;;;;;12.05;100.00;99905.56;4840947;29;20166;-83
2022/04/17 06:03:29;;;;;;;52.03;32.22;;;;;;;12.07;100.00;99900.94;4840717;29;20423;-82
2022/04/17 06:05:55;;;;;;;54.95;31.45;;;;;;;12.20;100.00;99910.78;4843155;29;20394;-83
2022/04/17 06:08:21;;;;;;;56.10;32.55;;;;;;;12.24;100.00;99914.69;4845446;29;20396;-83
2022/04/17 06:10:47;;;;;;;54.15;31.02;;;;;;;12.16;100.00;99900.81;4838300;29;20030;-82
2022/04/17 06:13:12;;;;;;;55.17;32.63;;;;;;;12.07;100.00;99887.75;4840667;29;20044;-83
2022/04/17 06:15:40;;;;;;;56.70;32.00;;;;;;;12.35;100.00;99917.88;4847840;29;20037;-82
2022/04/17 06:18:06;;;;;;;50.42;30.67;;;;;;;12.32;100.00;99895.34;4853368;29;20030;-82
2022/04/17 06:20:32;;;;;;;46.00;29.20;;;;;;;12.54;100.00;99913.81;4849037;29;20033;-82
2022/04/17 06:22:58;;;;;;;51.60;30.38;;;;;;;12.49;100.00;99903.03;4860789;29;20101;-81
2022/04/17 06:25:23;;;;;;;52.72;33.45;;;;;;;12.61;100.00;99914.72;4856906;29;20045;-84
2022/04/17 06:27:49;;;;;;;52.13;30.95;;;;;;;12.70;100.00;99910.16;4875612;29;20317;-83
2022/04/17 06:30:19;;;;;;;52.17;30.58;;;;;;;12.67;100.00;99894.69;4860731;29;20036;-82
2022/04/17 06:32:46;;;;;;;46.67;29.98;;;;;;;12.78;100.00;99896.84;4859258;29;20037;-82
2022/04/17 06:35:13;;;;;;;50.42;31.15;;;;;;;12.73;100.00;99878.16;4877846;29;20041;-83
2022/04/17 06:38:00;;;;;;;50.83;31.65;;;;;;;12.86;100.00;99898.56;4876146;29;20089;-83
2022/04/17 06:40:34;;;;;;;47.78;29.27;;;;;;;12.88;100.00;99891.28;4877595;29;20081;-83
2022/04/17 06:43:05;;;;;;;;;;;;;;;12.98;100.00;99893.59;4861121;29;20039;-84
2022/04/17 06:45:33;;;;;;;47.95;28.92;;;;;;;13.07;100.00;99894.28;4878312;29;19938;-80
2022/04/17 06:48:20;;;;;;;51.28;30.80;;;;;;;13.06;100.00;99876.84;4859776;29;20029;-82
2022/04/17 06:50:47;;;;;;;48.58;30.08;;;;;;;13.25;100.00;99886.72;4870490;29;20032;-83
2022/04/17 06:53:13;;;;;;;51.75;31.70;;;;;;;13.27;100.00;99882.06;4876230;29;20120;-83
2022/04/17 06:55:39;;;;;;;48.80;30.02;;;;;;;13.25;100.00;99870.91;4844458;29;20167;-82
2022/04/17 06:58:05;;;;;;;48.92;31.77;;;;;;;13.19;100.00;99844.47;4860173;29;20484;-82
2022/04/17 07:00:30;;;;;;;51.20;32.80;;;;;;;13.25;100.00;99849.81;4841321;29;20033;-83
2022/04/17 07:02:56;;;;;;;51.47;31.50;;;;;;;13.32;100.00;99862.22;4861189;29;20518;-84
2022/04/17 07:05:22;;;;;;;51.85;32.22;;;;;;;13.49;100.00;99870.69;4861651;29;20129;-83
2022/04/17 07:07:57;;;;;;;48.33;30.17;;;;;;;13.62;100.00;99870.75;4842185;29;20068;-83
2022/04/17 07:10:23;;;;;;;49.55;29.58;;;;;;;13.75;100.00;99867.38;4859108;29;20041;-84
2022/04/17 07:12:49;;;;;;;48.60;31.65;;;;;;;13.85;100.00;99859.09;4878034;29;20036;-82
2022/04/17 07:15:15;;;;;;;54.95;33.10;;;;;;;13.99;100.00;99854.72;4845940;29;20076;-84
2022/04/17 07:17:41;;;;;;;46.83;29.52;;;;;;;14.02;100.00;99832.38;4859480;29;20037;-83
2022/04/17 07:20:09;;;;;;;49.85;32.20;;;;;;;14.26;100.00;99854.81;4844676;29;20047;-83
2022/04/17 07:22:36;;;;;;;51.55;32.45;;;;;;;14.28;100.00;99839.56;4838936;29;20061;-83
2022/04/17 07:25:04;;;;;;;50.60;31.08;;;;;;;14.48;100.00;99852.00;4824718;29;20036;-83
2022/04/17 07:27:41;;;;;;;49.55;30.85;;;;;;;14.55;100.00;99844.94;4842533;29;20037;-84
2022/04/17 07:30:15;;;;;;;49.85;30.90;;;;;;;14.54;100.00;99851.22;4836305;29;20086;-84
2022/04/17 07:32:46;;;;;;;47.13;30.40;;;;;;;14.58;100.00;99847.19;4836708;29;20129;-82
2022/04/17 07:35:13;;;;;;;45.15;28.98;;;;;;;14.60;100.00;99833.75;4842198;29;20034;-84
2022/04/17 07:37:39;;;;;;;52.05;31.75;;;;;;;14.62;100.00;99834.34;4839972;29;20499;-83
2022/04/17 07:40:10;;;;;;;53.30;32.33;;;;;;;14.32;100.00;99806.47;4842497;29;20029;-83
2022/04/17 07:42:35;;;;;;;52.25;32.10;;;;;;;14.56;100.00;99828.06;4845523;29;20363;-83
2022/04/17 07:45:01;;;;;;;51.95;30.92;;;;;;;14.46;100.00;99814.44;4838382;29;20033;-83
2022/04/17 07:47:27;;;;;;;45.92;28.45;;;;;;;14.61;100.00;99823.00;4822694;29;20377;-83
2022/04/17 07:49:52;;;;;;;45.95;27.73;;;;;;;14.82;100.00;99826.50;4850578;29;20454;-83
2022/04/17 07:52:18;;;;;;;49.67;29.27;;;;;;;14.79;100.00;99811.84;4848810;29;20396;-83
2022/04/17 07:54:44;;;;;;;47.17;28.75;;;;;;;14.94;100.00;99818.75;4824369;29;20570;-83
2022/04/17 07:57:14;;;;;;;49.80;31.30;;;;;;;15.04;100.00;99818.34;4824677;29;20410;-83
2022/04/17 07:59:40;;;;;;;49.47;30.63;;;;;;;14.88;100.00;99778.09;4847108;29;20041;-83
2022/04/17 08:02:11;;;;;;;44.75;28.00;;;;;;;15.03;100.00;99785.00;4840787;29;20050;-82
2022/04/17 08:04:40;;;;;;;50.67;31.00;;;;;;;15.25;100.00;99814.69;4832153;29;20042;-82
2022/04/17 08:07:06;;;;;;;49.67;31.33;;;;;;;15.35;100.00;99811.59;4831749;29;20094;-84
2022/04/17 08:09:32;;;;;;;47.90;28.90;;;;;;;15.48;100.00;99803.63;4839803;29;20034;-84
2022/04/17 08:11:59;;;;;;;45.03;28.30;;;;;;;15.60;100.00;99801.13;4836777;29;21358;-83
2022/04/17 08:14:24;;;;;;;44.17;29.23;;;;;;;15.47;100.00;99780.81;4818209;29;20056;-83
2022/04/17 08:16:50;;;;;;;38.88;27.15;;;;;;;15.72;100.00;99790.72;4842063;29;20465;-84
2022/04/17 08:19:16;;;;;;;46.30;28.75;;;;;;;15.73;100.00;99783.59;4847908;29;20090;-85
2022/04/17 08:21:43;;;;;;;41.03;28.45;;;;;;;15.74;100.00;99793.16;4821018;29;20508;-84
2022/04/17 08:24:09;;;;;;;48.25;30.33;;;;;;;15.93;100.00;99794.13;4827109;29;20097;-84
2022/04/17 08:26:35;;;;;;;48.15;30.67;;;;;;;16.03;100.00;99789.19;4839288;29;20030;-84
2022/04/17 08:29:00;;;;;;;38.78;26.00;;;;;;;16.07;100.00;99779.78;4841321;29;20112;-86
2022/04/17 08:31:26;;;;;;;52.17;31.23;;;;;;;15.96;100.00;99769.88;4844643;29;20052;-89
2022/04/17 08:33:52;;;;;;;52.78;32.85;;;;;;;16.08;100.00;99777.97;4844506;29;20034;-86
2022/04/17 08:36:18;;;;;;;52.58;33.83;;;;;;;15.96;100.00;99762.72;4844521;29;20034;-87
2022/04/17 08:38:44;;;;;;;50.40;34.20;;;;;;;16.11;100.00;99794.25;4845355;29;20034;-89
2022/04/17 08:41:11;;;;;;;48.85;32.92;;;;;;;16.01;100.00;99778.00;4823490;29;20119;-86
2022/04/17 08:43:37;;;;;;;51.40;33.88;;;;;;;16.17;100.00;99783.81;4846649;29;20063;-89
2022/04/17 08:46:03;;;;;;;49.25;32.65;;;;;;;16.16;100.00;99771.59;4842912;29;20125;-88
2022/04/17 08:48:31;;;;;;;55.58;34.88;;;;;;;16.27;100.00;99792.09;4850627;29;20045;-92
2022/04/17 08:50:57;;;;;;;50.35;32.63;;;;;;;16.36;100.00;99777.59;4850006;29;20034;-89
2022/04/17 08:53:24;;;;;;;49.15;34.25;;;;;;;16.54;100.00;99779.47;4868585;29;20036;-87
2022/04/17 08:55:54;;;;;;;50.10;33.65;;;;;;;16.61;100.00;99787.38;4833615;29;20113;-87
2022/04/17 08:58:19;;;;;;;48.83;32.63;;;;;;;16.73;100.00;99765.50;4833509;29;20401;-88
2022/04/17 09:00:45;;;;;;;52.95;33.78;;;;;;;16.83;100.00;99771.09;4847511;29;20557;-85
2022/04/17 09:03:12;;;;;;;47.67;32.10;;;;;;;16.72;100.00;99737.34;4851873;29;20052;-92
2022/04/17 09:05:39;;;;;;;50.72;33.47;;;;;;;16.72;100.00;99732.06;4837277;29;20114;-89
2022/04/17 09:08:17;;;;;;;50.67;31.95;;;;;;;16.90;100.00;99779.81;4849313;29;20050;-84
2022/04/17 09:10:58;;;;;;;50.67;33.42;;;;;;;16.78;100.00;99747.09;4830896;29;20464;-83
2022/04/17 09:13:34;;;;;;;49.30;33.85;;;;;;;16.81;99.87;99771.31;4847273;29;20041;-85
2022/04/17 09:16:04;;;;;;;52.97;34.30;;;;;;;16.69;100.00;99720.03;4848658;29;20064;-89
2022/04/17 09:18:31;;;;;;;49.10;32.17;;;;;;;16.92;100.00;99750.41;4858778;29;20034;-88
2022/04/17 09:20:58;;;;;;;51.63;32.08;;;;;;;16.95;100.00;99755.28;4837327;29;20048;-87
2022/04/17 09:23:37;;;;;;;49.80;32.40;;;;;;;17.11;99.74;99749.44;4833946;29;20447;-88
2022/04/17 09:26:07;;;;;;;47.60;33.20;;;;;;;17.06;98.40;99743.16;4847650;29;20038;-87
2022/04/17 09:28:40;;;;;;;44.88;30.92;;;;;;;17.14;96.74;99724.31;4836038;29;20480;-85
2022/04/17 09:31:13;;;;;;;43.25;29.25;;;;;;;17.32;96.59;99725.34;4858915;29;20077;-84
2022/04/17 09:33:41;;;;;;;43.88;30.27;;;;;;;17.30;96.06;99719.47;4849098;29;20133;-86
2022/04/17 09:36:08;;;;;;;51.92;31.05;;;;;;;17.53;95.17;99718.75;4832881;29;20489;-88
2022/04/17 09:38:35;;;;;;;43.05;29.75;;;;;;;17.64;92.05;99712.69;4851325;29;20574;-86
2022/04/17 09:41:05;;;;;;;46.25;29.23;;;;;;;17.68;93.09;99702.41;4832741;29;20030;-85
2022/04/17 09:43:35;;;;;;;43.22;28.38;;;;;;;17.98;90.25;99714.88;4847471;29;20041;-85
2022/04/17 09:46:07;;;;;;;41.00;28.40;;;;;;;18.34;91.89;99699.88;4836105;29;20613;-86
2022/04/17 09:48:44;;;;;;;45.13;30.05;;;;;;;18.53;90.59;99691.78;4834696;29;20026;-87
2022/04/17 09:51:27;;;;;;;43.13;29.27;;;;;;;18.73;89.78;99686.09;4833645;29;20109;-86
2022/04/17 09:54:04;;;;;;;43.38;31.02;;;;;;;18.83;89.49;99690.84;4846620;29;20086;-86
2022/04/17 09:56:37;;;;;;;42.88;31.55;;;;;;;19.03;88.85;99695.00;4834909;29;20105;-87
2022/04/17 09:59:23;;;;;;;49.20;33.20;;;;;;;19.18;87.97;99687.34;4850072;29;20178;-86
2022/04/17 10:01:56;;;;;;;48.83;34.00;;;;;;;18.91;87.09;99687.00;4848581;29;20064;-86
2022/04/17 10:04:25;;;;;;;46.88;32.50;;;;;;;19.38;87.67;99680.78;4828895;29;20034;-86
2022/04/17 10:06:53;;;;;;;52.17;36.33;;;;;;;19.22;85.12;99667.19;4832338;29;20049;-87
2022/04/17 10:09:20;;;;;;;50.45;36.53;;;;;;;19.28;86.16;99670.75;4847081;29;20030;-86
2022/04/17 10:11:47;;;;;;;51.92;36.10;;;;;;;19.48;86.55;99670.34;4849741;29;20033;-87
2022/04/17 10:14:14;;;;;;;51.35;35.38;;;;;;;19.45;86.74;99665.47;4846599;29;20043;-86
2022/04/17 10:16:41;;;;;;;50.78;35.55;;;;;;;19.83;85.84;99668.56;4849185;29;20205;-86
2022/04/17 10:19:15;;;;;;;53.88;37.40;;;;;;;19.77;85.30;99662.31;4841856;29;20373;-87
2022/04/17 10:21:41;;;;;;;47.92;35.05;;;;;;;19.81;84.89;99660.00;4839577;29;20069;-86
2022/04/17 10:24:12;;;;;;;51.17;36.35;;;;;;;19.83;84.36;99639.25;4848997;29;20057;-87
2022/04/17 10:26:43;;;;;;;47.47;32.60;;;;;;;20.10;84.48;99652.78;4831307;29;20076;-89
2022/04/17 10:29:17;;;;;;;42.38;29.45;;;;;;;20.37;84.00;99632.66;4853396;29;20515;-88
2022/04/17 10:32:29;;;;;;;43.45;32.28;;;;;;;20.44;82.09;99643.94;4846459;29;20089;-87
2022/04/17 10:35:14;;;;;;;41.65;30.52;;;;;;;20.24;81.15;99636.44;4826635;29;20049;-86
2022/04/17 10:38:10;;;;;;;41.92;30.30;;;;;;;20.37;81.94;99633.44;4833018;29;20045;-87
2022/04/17 10:40:37;;;;;;;39.15;28.58;;;;;;;20.37;81.45;99633.44;4834320;29;20033;-85
2022/04/17 10:43:04;;;;;;;39.28;28.45;;;;;;;20.41;82.50;99623.91;4848510;29;20034;-85
2022/04/17 10:45:31;;;;;;;37.72;28.48;;;;;;;20.57;81.11;99623.31;4830417;29;20046;-87
2022/04/17 10:48:11;;;;;;;37.88;27.45;;;;;;;20.50;82.11;99615.50;4847098;29;20504;-86
2022/04/17 10:50:52;;;;;;;35.17;26.17;;;;;;;20.66;81.59;99614.66;4848248;29;20030;-86
2022/04/17 10:53:22;;;;;;;37.65;27.52;;;;;;;20.39;81.05;99610.00;4846984;29;20504;-87
2022/04/17 10:56:08;;;;;;;37.03;27.65;;;;;;;20.71;80.18;99595.22;4829489;29;20074;-87
2022/04/17 10:58:53;;;;;;;39.72;26.27;;;;;;;21.07;80.83;99605.53;4830133;29;20041;-87
2022/04/17 11:01:49;;;;;;;39.63;28.23;;;;;;;20.89;79.54;99596.81;4830812;29;20037;-87
2022/04/17 11:04:21;;;;;;;32.25;24.05;;;;;;;21.03;79.46;99596.41;4831783;29;20094;-86
2022/04/17 11:07:05;;;;;;;37.75;26.45;;;;;;;20.57;78.83;99602.78;4831849;29;20086;-88
2022/04/17 11:09:33;;;;;;;35.42;25.38;;;;;;;20.66;78.87;99590.63;4825621;29;20089;-88
2022/04/17 11:12:17;;;;;;;35.15;24.30;;;;;;;21.10;78.03;99589.03;4833219;29;20042;-87
2022/04/17 11:15:03;;;;;;;37.38;26.05;;;;;;;21.00;76.75;99576.38;4826351;29;20137;-85
2022/04/17 11:17:32;;;;;;;39.92;27.90;;;;;;;20.72;78.04;99580.81;4851949;29;20065;-85
2022/04/17 11:19:59;;;;;;;36.33;26.27;;;;;;;21.08;79.09;99577.78;4830926;29;20029;-84
2022/04/17 11:22:36;;;;;;;37.33;26.73;;;;;;;21.07;77.90;99560.16;4855703;29;20138;-86
2022/04/17 11:25:12;;;;;;;39.70;27.55;;;;;;;21.15;77.32;99565.03;4858060;29;20043;-87
2022/04/17 11:27:41;;;;;;;38.50;25.92;;;;;;;21.33;77.63;99549.72;4833575;29;20070;-86
2022/04/17 11:30:09;;;;;;;31.70;24.17;;;;;;;21.05;77.79;99554.28;4832821;29;20034;-86